CheckWX is a tool to help pilots better visualize weather data.  It is not intended as a substitute for an official pre-flight weather briefing.

05:42:32 UTC

KPDT METAR
Eastern Oregon Regional at Pendleton Airport
Pendleton, Oregon, USA
Current

50 mins ago

KPDT 200453Z AUTO 19007KT 10SM OVC036 02/00 A2985 RMK AO2 RAE40SNE0354 SLP112 P0000 T00220000
Observed
Feb-20 @ 04:53 UTC
Wind
  • 190° at 7 KTS
Visibility
16,093 meters
Flight Rules
VFR
Cloud Levels
  • Overcast at 3,600' AGL
Temperature
C / 36°F
Dewpoint
C / 32°F
Humidity
87%
Altimeter
29.85" Hg
Pressure
1011.2 hPa
Current Rain
0.01"
Previous

2 hours ago

KPDT 200400Z AUTO 24011KT 10SM -RA OVC033 02/00 A2987 RMK AO2 SNE0354 P0000 T00220000
Observed
Feb-20 @ 04:00 UTC
Wind
  • 240° at 11 KTS
Visibility
16,093 meters
Flight Rules
VFR
Conditions
Light Rain
Cloud Levels
  • Overcast at 3,300' AGL
Temperature
C / 36°F
Dewpoint
C / 32°F
Humidity
87%
Altimeter
29.87" Hg
Pressure
1011.52 hPa
Current Rain
0.01"
Previous

2 hours ago

KPDT 200353Z 23011KT 10SM -RASN FEW023 OVC029 02/00 A2988 RMK AO2 SNB0254 SLP122 P0001 T00220000
Observed
Feb-20 @ 03:53 UTC
Wind
  • 230° at 11 KTS
Visibility
16,093 meters
Flight Rules
MVFR
Conditions
Light Rain, Light Snow
Cloud Levels
  • Few at 2,300' AGL
  • Overcast at 2,900' AGL
Temperature
C / 36°F
Dewpoint
C / 32°F
Humidity
87%
Altimeter
29.88" Hg
Pressure
1012.2 hPa
Current Rain
0.01"